createdAt,value
2022-08-11T00:05:55.376Z,0.88
2022-08-11T00:12:11.588Z,0.87
2022-08-11T00:24:52.672Z,1.55
2022-08-11T00:30:54.852Z,0.75
2022-08-11T00:37:09.496Z,0.98
2022-08-11T00:43:24.262Z,1.10
2022-08-11T00:49:46.502Z,1.37
2022-08-11T00:56:30.340Z,1.80
2022-08-11T01:03:06.293Z,1.07
2022-08-11T01:09:33.025Z,1.57
2022-08-11T01:16:25.645Z,1.27
2022-08-11T01:23:31.176Z,1.50
2022-08-11T01:30:35.021Z,1.00
2022-08-11T01:37:13.680Z,1.05
2022-08-11T01:44:04.658Z,1.22
2022-08-11T01:50:23.194Z,1.07
2022-08-11T01:56:52.996Z,0.72
2022-08-11T02:03:09.323Z,0.90
2022-08-11T02:15:39.539Z,1.07
2022-08-11T02:22:08.780Z,0.80
2022-08-11T02:28:26.326Z,1.87
2022-08-11T02:34:44.081Z,2.05
2022-08-11T02:41:03.378Z,1.98
2022-08-11T02:47:21.829Z,1.45
2022-08-11T02:53:38.717Z,1.02
2022-08-11T02:59:56.914Z,1.43
2022-08-11T03:06:15.574Z,1.67
2022-08-11T03:12:48.050Z,1.02
2022-08-11T03:19:02.303Z,1.27
2022-08-11T03:25:20.212Z,1.00
2022-08-11T03:31:35.515Z,0.90
2022-08-11T03:37:57.565Z,1.10
2022-08-11T03:44:16.626Z,1.52
2022-08-11T03:50:35.438Z,1.15
2022-08-11T03:57:26.730Z,1.17
2022-08-11T04:04:09.016Z,0.57
2022-08-11T04:10:59.729Z,0.70
2022-08-11T04:17:34.682Z,0.53
2022-08-11T04:24:35.194Z,1.10
2022-08-11T04:30:41.405Z,0.70
2022-08-11T04:37:33.569Z,0.80
2022-08-11T04:44:24.054Z,1.10
2022-08-11T04:51:08.907Z,0.72
2022-08-11T04:57:28.209Z,1.02
2022-08-11T05:03:51.665Z,0.80
2022-08-11T05:10:16.387Z,0.93
2022-08-11T05:16:48.974Z,1.17
2022-08-11T05:23:17.636Z,0.90
2022-08-11T05:29:59.475Z,1.20
2022-08-11T05:36:17.912Z,0.72
2022-08-11T05:42:47.396Z,0.70
2022-08-11T05:49:15.283Z,0.95
2022-08-11T05:56:01.743Z,0.75
2022-08-11T06:02:01.960Z,0.72
2022-08-11T06:08:18.280Z,0.95
2022-08-11T06:14:33.144Z,0.80
2022-08-11T06:20:53.937Z,0.90
2022-08-11T06:27:13.439Z,0.88
2022-08-11T06:33:29.666Z,0.80
2022-08-11T06:39:49.884Z,0.72
2022-08-11T06:46:06.985Z,0.62
2022-08-11T06:52:35.879Z,0.62
2022-08-11T06:58:54.463Z,0.90
2022-08-11T07:05:12.453Z,0.47
2022-08-11T07:12:11.531Z,0.75
2022-08-11T07:18:45.822Z,1.02
2022-08-11T07:25:19.105Z,0.53
2022-08-11T07:31:43.087Z,0.70
2022-08-11T07:38:01.909Z,0.80
2022-08-11T07:44:19.688Z,0.78
2022-08-11T07:50:54.200Z,1.05
2022-08-11T07:57:57.723Z,0.75
2022-08-11T08:03:54.946Z,0.68
2022-08-11T08:10:22.616Z,0.72
2022-08-11T08:16:52.181Z,0.88
2022-08-11T08:23:07.511Z,0.75
2022-08-11T08:29:36.314Z,0.47
2022-08-11T08:35:54.329Z,0.60
2022-08-11T08:42:03.809Z,0.72
2022-08-11T08:48:19.746Z,0.85
2022-08-11T08:54:36.498Z,0.88
2022-08-11T09:00:52.990Z,0.70
2022-08-11T09:07:06.541Z,0.70
2022-08-11T09:13:23.004Z,0.95
2022-08-11T09:19:37.045Z,0.50
2022-08-11T09:26:07.756Z,0.70
2022-08-11T09:32:21.943Z,0.47
2022-08-11T09:38:51.350Z,0.65
2022-08-11T09:45:05.681Z,0.75
2022-08-11T09:51:20.029Z,0.60
2022-08-11T09:57:48.021Z,0.70
2022-08-11T10:04:18.888Z,0.93
2022-08-11T10:10:31.647Z,0.70
2022-08-11T10:16:45.513Z,0.60
2022-08-11T10:23:15.493Z,0.85
2022-08-11T10:29:49.677Z,0.70
2022-08-11T10:36:00.887Z,0.70
2022-08-11T10:42:56.795Z,0.65
2022-08-11T10:48:46.638Z,0.60
2022-08-11T10:55:14.500Z,0.60
2022-08-11T11:01:27.964Z,0.70
2022-08-11T11:07:45.671Z,0.47
2022-08-11T11:14:11.827Z,0.80
2022-08-11T11:20:36.173Z,0.85
2022-08-11T11:26:47.881Z,0.72
2022-08-11T11:33:05.640Z,0.90
2022-08-11T11:39:17.970Z,0.70
2022-08-11T11:45:30.544Z,0.80
2022-08-11T11:51:45.623Z,0.70
2022-08-11T11:58:18.586Z,0.57
2022-08-11T12:04:31.107Z,1.00
2022-08-11T12:10:45.255Z,0.70
2022-08-11T12:16:57.479Z,0.85
2022-08-11T12:23:26.416Z,0.40
2022-08-11T12:29:43.780Z,0.80
2022-08-11T12:36:00.631Z,0.53
2022-08-11T12:42:27.823Z,0.45
2022-08-11T12:49:01.992Z,0.75
2022-08-11T12:55:14.404Z,0.62
2022-08-11T13:01:42.273Z,0.53
2022-08-11T13:07:55.087Z,0.70
2022-08-11T13:14:11.024Z,0.90
2022-08-11T13:20:24.449Z,0.60
2022-08-11T13:26:49.442Z,0.65
2022-08-11T13:32:53.095Z,0.60
2022-08-11T13:39:05.730Z,0.98
2022-08-11T13:45:19.272Z,0.90
2022-08-11T13:51:36.538Z,1.00
2022-08-11T13:58:07.737Z,0.60
2022-08-11T14:04:30.238Z,0.97
2022-08-11T14:10:24.959Z,0.72
2022-08-11T14:16:40.085Z,0.62
2022-08-11T14:22:54.163Z,0.90
2022-08-11T14:29:07.473Z,0.45
2022-08-11T14:35:21.633Z,0.93
2022-08-11T14:42:11.892Z,0.93
2022-08-11T14:48:04.877Z,0.47
2022-08-11T14:54:32.733Z,0.50
2022-08-11T15:00:46.168Z,0.62
2022-08-11T15:07:00.600Z,0.50
2022-08-11T15:13:13.875Z,1.05
2022-08-11T15:19:27.857Z,0.78
2022-08-11T15:25:42.034Z,0.78
2022-08-11T15:32:10.587Z,0.40
2022-08-11T15:38:23.094Z,0.80
2022-08-11T15:45:06.521Z,0.75
2022-08-11T15:51:08.598Z,0.55
2022-08-11T15:57:40.001Z,0.55
2022-08-11T16:04:12.521Z,0.60
2022-08-11T16:10:25.018Z,0.70
2022-08-11T16:16:36.693Z,0.55
2022-08-11T16:23:00.356Z,0.60
2022-08-11T16:29:24.058Z,0.47
2022-08-11T16:35:53.559Z,0.50
2022-08-11T16:43:08.777Z,0.60
2022-08-11T16:48:39.561Z,0.40
2022-08-11T16:54:53.030Z,0.95
2022-08-11T17:01:05.379Z,0.60
2022-08-11T17:07:40.590Z,0.53
2022-08-11T17:13:50.031Z,0.40
2022-08-11T17:20:39.649Z,0.50
2022-08-11T17:26:19.390Z,0.37
2022-08-11T17:32:56.433Z,0.50
2022-08-11T17:39:03.842Z,0.60
2022-08-11T17:45:33.215Z,0.30
2022-08-11T17:52:01.431Z,0.30
2022-08-11T17:58:29.606Z,0.40
2022-08-11T18:04:43.320Z,0.40
2022-08-11T18:11:12.362Z,0.40
2022-08-11T18:17:43.273Z,0.57
2022-08-11T18:24:13.044Z,0.40
2022-08-11T18:30:41.014Z,0.30
2022-08-11T18:37:21.739Z,0.53
2022-08-11T18:43:43.887Z,0.60
2022-08-11T18:50:13.841Z,0.30
2022-08-11T18:56:45.047Z,0.50
2022-08-11T19:03:14.816Z,0.40
2022-08-11T19:09:42.081Z,0.50
2022-08-11T19:16:14.254Z,0.50
2022-08-11T19:22:42.971Z,0.33
2022-08-11T19:30:07.675Z,0.50
2022-08-11T19:35:42.668Z,0.40
2022-08-11T19:42:12.941Z,0.45
2022-08-11T19:48:40.964Z,0.42
2022-08-11T19:55:12.876Z,0.40
2022-08-11T20:01:42.572Z,0.30
2022-08-11T20:08:13.234Z,0.40
2022-08-11T20:14:42.878Z,0.47
2022-08-11T20:21:22.836Z,0.60
2022-08-11T20:27:45.381Z,0.40
2022-08-11T20:34:14.990Z,0.35
2022-08-11T20:40:46.685Z,0.30
2022-08-11T20:47:15.036Z,0.50
2022-08-11T20:53:52.948Z,0.30
2022-08-11T21:00:39.191Z,0.45
2022-08-11T21:06:54.710Z,0.28
2022-08-11T21:13:27.058Z,0.25
2022-08-11T21:20:06.734Z,0.40
2022-08-11T21:26:27.865Z,0.40
2022-08-11T21:32:56.020Z,0.30
2022-08-11T21:39:25.744Z,0.30
2022-08-11T21:45:54.558Z,0.30
2022-08-11T21:52:23.624Z,0.23
2022-08-11T21:58:52.717Z,0.45
2022-08-11T22:05:19.622Z,0.40
2022-08-11T22:11:48.412Z,0.40
2022-08-11T22:18:18.907Z,0.50
2022-08-11T22:24:47.210Z,0.28
2022-08-11T22:31:18.662Z,0.20
2022-08-11T22:37:46.490Z,0.20
2022-08-11T22:44:16.220Z,0.30
2022-08-11T22:50:43.137Z,0.30
2022-08-11T22:57:11.372Z,0.40
2022-08-11T23:03:39.378Z,0.28
2022-08-11T23:10:08.152Z,0.20
2022-08-11T23:16:35.262Z,0.30
2022-08-11T23:23:04.087Z,0.23
2022-08-11T23:29:32.310Z,0.33
2022-08-11T23:36:02.246Z,0.45
2022-08-11T23:42:27.254Z,0.20
2022-08-11T23:48:54.465Z,0.30
2022-08-11T23:55:23.289Z,0.30
